Terminal Aerodrome Forecast
Issued by NWS

Home | Current Version | Previous Version | Text Only | Print | Product List | Glossary On
Versions: 1 2 3 4 5 6 7 8 9 10 11 12 13 14 15 16 17 18 19 20
000
FTAK31 PANC 252027 AAA
TAFADQ
TAF AMD
PADQ 252027Z 2520/2618 25008KT P6SM SCT100 BKN200
     FM260200 22007KT 5SM -SN SCT020 BKN030
     FM260800 27018G30KT P6SM SCT035 BKN100
     FM261500 24016G26KT P6SM SCT035 BKN070=

USA.gov is the U.S. government's official web portal to all federal, state and local government web resources and services.